createdAt,value
2022-11-21T00:01:24.153Z,9.77
2022-11-21T00:03:51.251Z,9.50
2022-11-21T00:06:18.611Z,8.40
2022-11-21T00:08:46.383Z,8.95
2022-11-21T00:11:13.839Z,8.68
2022-11-21T00:13:40.790Z,8.18
2022-11-21T00:16:10.323Z,8.00
2022-11-21T00:18:37.262Z,8.52
2022-11-21T00:21:16.383Z,8.00
2022-11-21T00:23:43.933Z,6.82
2022-11-21T00:26:12.328Z,8.38
2022-11-21T00:28:38.996Z,7.47
2022-11-21T00:31:06.446Z,8.70
2022-11-21T00:33:35.139Z,9.07
2022-11-21T00:36:09.464Z,8.20
2022-11-21T00:38:37.093Z,7.15
2022-11-21T00:41:04.464Z,7.82
2022-11-21T00:43:31.340Z,8.75
2022-11-21T00:46:01.446Z,8.50
2022-11-21T00:48:29.031Z,7.43
2022-11-21T00:50:55.950Z,8.82
2022-11-21T00:53:22.673Z,7.03
2022-11-21T00:55:49.363Z,7.15
2022-11-21T00:58:16.002Z,5.82
2022-11-21T01:00:42.819Z,9.43
2022-11-21T01:03:09.906Z,8.10
2022-11-21T01:05:36.668Z,7.57
2022-11-21T01:08:03.544Z,7.95
2022-11-21T01:10:30.343Z,7.82
2022-11-21T01:12:57.276Z,9.27
2022-11-21T01:15:24.053Z,6.95
2022-11-21T01:17:50.708Z,9.18
2022-11-21T01:20:17.557Z,7.68
2022-11-21T01:22:44.241Z,9.88
2022-11-21T01:25:10.957Z,8.82
2022-11-21T01:27:37.629Z,6.97
2022-11-21T01:30:04.654Z,9.50
2022-11-21T01:32:31.291Z,7.47
2022-11-21T01:34:57.940Z,6.68
2022-11-21T01:37:25.261Z,6.72
2022-11-21T01:39:52.120Z,6.82
2022-11-21T01:42:18.857Z,6.85
2022-11-21T01:44:48.824Z,7.53
2022-11-21T01:47:15.549Z,6.90
2022-11-21T01:49:42.529Z,6.95
2022-11-21T01:52:14.815Z,6.78
2022-11-21T01:55:02.779Z,6.87
2022-11-21T01:57:39.449Z,5.57
2022-11-21T02:00:17.532Z,6.07
2022-11-21T02:02:48.895Z,6.38
2022-11-21T02:05:23.428Z,6.97
2022-11-21T02:07:55.473Z,6.55
2022-11-21T02:10:23.152Z,7.68
2022-11-21T02:12:51.697Z,6.43
2022-11-21T02:15:19.579Z,4.88
2022-11-21T02:17:46.494Z,5.85
2022-11-21T02:20:17.040Z,5.97
2022-11-21T02:22:46.952Z,6.40
2022-11-21T02:25:20.145Z,4.15
2022-11-21T02:30:13.803Z,6.03
2022-11-21T02:32:46.831Z,4.88
2022-11-21T02:35:15.773Z,8.07
2022-11-21T02:37:45.249Z,5.25
2022-11-21T02:40:18.264Z,5.45
2022-11-21T02:42:56.451Z,5.72
2022-11-21T02:45:27.304Z,5.57
2022-11-21T02:48:00.691Z,5.75
2022-11-21T02:50:33.035Z,9.00
2022-11-21T02:53:00.380Z,5.95
2022-11-21T02:55:27.515Z,4.18
2022-11-21T02:57:54.634Z,4.88
2022-11-21T03:00:22.109Z,5.47
2022-11-21T03:02:48.880Z,6.45
2022-11-21T03:05:17.749Z,4.95
2022-11-21T03:07:45.346Z,7.00
2022-11-21T03:10:12.360Z,6.05
2022-11-21T03:12:40.736Z,5.13
2022-11-21T03:15:09.636Z,5.18
2022-11-21T03:17:36.273Z,5.32
2022-11-21T03:20:04.006Z,5.97
2022-11-21T03:22:30.785Z,5.20
2022-11-21T03:24:57.740Z,6.10
2022-11-21T03:27:24.450Z,5.03
2022-11-21T03:29:51.053Z,5.57
2022-11-21T03:32:17.665Z,5.13
2022-11-21T03:34:44.461Z,8.18
2022-11-21T03:37:11.079Z,4.78
2022-11-21T03:39:37.791Z,5.47
2022-11-21T03:42:04.586Z,6.07
2022-11-21T03:44:31.209Z,4.65
2022-11-21T03:46:57.901Z,5.97
2022-11-21T03:49:24.562Z,5.20
2022-11-21T03:51:51.278Z,6.38
2022-11-21T03:54:17.956Z,5.25
2022-11-21T03:56:44.582Z,8.68
2022-11-21T03:59:11.291Z,4.43
2022-11-21T04:01:38.060Z,4.07
2022-11-21T04:04:05.320Z,4.80
2022-11-21T04:06:32.039Z,4.03
2022-11-21T04:08:58.976Z,3.80
2022-11-21T04:11:25.836Z,3.75
2022-11-21T04:13:53.011Z,3.50
2022-11-21T04:16:20.283Z,5.00
2022-11-21T04:18:47.217Z,4.95
2022-11-21T04:21:14.217Z,4.15
2022-11-21T04:23:40.925Z,3.88
2022-11-21T04:26:07.840Z,5.85
2022-11-21T04:28:34.633Z,4.20
2022-11-21T04:31:10.233Z,5.35
2022-11-21T04:33:38.596Z,6.32
2022-11-21T04:36:06.109Z,3.40
2022-11-21T04:38:32.704Z,4.88
2022-11-21T04:40:59.342Z,6.93
2022-11-21T04:43:26.006Z,5.05
2022-11-21T04:45:52.709Z,4.18
2022-11-21T04:48:19.380Z,3.65
2022-11-21T04:50:46.793Z,4.22
2022-11-21T04:53:13.706Z,4.13
2022-11-21T04:55:40.309Z,3.40
2022-11-21T04:58:06.985Z,4.32
2022-11-21T05:00:34.913Z,4.82
2022-11-21T05:03:05.965Z,4.57
2022-11-21T05:05:32.778Z,3.58
2022-11-21T05:07:59.678Z,4.40
2022-11-21T05:10:26.543Z,2.58
2022-11-21T05:13:18.696Z,3.90
2022-11-21T05:15:46.057Z,4.05
2022-11-21T05:18:12.796Z,2.95
2022-11-21T05:20:39.588Z,4.15
2022-11-21T05:23:06.523Z,2.75
2022-11-21T05:25:33.236Z,4.45
2022-11-21T05:27:59.954Z,2.78
2022-11-21T05:30:26.593Z,4.25
2022-11-21T05:32:53.224Z,3.90
2022-11-21T05:35:19.916Z,3.10
2022-11-21T05:37:46.606Z,4.75
2022-11-21T05:40:13.339Z,2.45
2022-11-21T05:43:01.707Z,3.65
2022-11-21T05:45:28.324Z,2.95
2022-11-21T05:47:54.912Z,3.60
2022-11-21T05:50:21.548Z,2.70
2022-11-21T05:52:48.229Z,3.08
2022-11-21T05:55:15.010Z,6.13
2022-11-21T05:57:41.733Z,3.22
2022-11-21T06:00:09.075Z,4.75
2022-11-21T06:02:54.335Z,3.70
2022-11-21T06:05:21.020Z,2.58
2022-11-21T06:07:47.733Z,3.65
2022-11-21T06:10:14.456Z,3.58
2022-11-21T06:12:41.062Z,2.85
2022-11-21T06:15:08.241Z,3.80
2022-11-21T06:17:34.852Z,3.13
2022-11-21T06:20:02.059Z,3.88
2022-11-21T06:22:28.684Z,3.90
2022-11-21T06:24:55.286Z,4.18
2022-11-21T06:27:22.003Z,5.47
2022-11-21T06:29:48.727Z,5.57
2022-11-21T06:32:15.646Z,3.55
2022-11-21T06:34:42.407Z,6.05
2022-11-21T06:37:09.087Z,3.10
2022-11-21T06:39:35.730Z,3.40
2022-11-21T06:42:02.791Z,3.95
2022-11-21T06:44:29.722Z,4.43
2022-11-21T06:46:56.661Z,5.68
2022-11-21T06:49:23.390Z,4.07
2022-11-21T06:51:50.290Z,5.30
2022-11-21T06:54:17.308Z,6.32
2022-11-21T06:56:44.358Z,5.68
2022-11-21T06:59:11.652Z,7.22
2022-11-21T07:01:38.556Z,6.50
2022-11-21T07:04:05.361Z,6.85
2022-11-21T07:06:32.128Z,6.95
2022-11-21T07:09:31.478Z,5.78
2022-11-21T07:11:45.578Z,5.68
2022-11-21T07:14:13.256Z,6.53
2022-11-21T07:16:40.131Z,7.32
2022-11-21T07:19:06.741Z,5.93
2022-11-21T07:21:33.427Z,5.22
2022-11-21T07:24:00.041Z,5.35
2022-11-21T07:26:26.737Z,6.63
2022-11-21T07:28:53.398Z,6.95
2022-11-21T07:31:20.072Z,7.07
2022-11-21T07:33:47.696Z,7.05
2022-11-21T07:36:14.385Z,6.93
2022-11-21T07:38:42.037Z,6.78
2022-11-21T07:41:09.591Z,7.70
2022-11-21T07:43:36.656Z,7.57
2022-11-21T07:46:03.726Z,8.07
2022-11-21T07:48:30.344Z,6.68
2022-11-21T07:50:56.956Z,6.72
2022-11-21T07:53:24.290Z,8.25
2022-11-21T07:55:50.999Z,7.18
2022-11-21T07:58:18.125Z,10.30
2022-11-21T08:00:44.854Z,7.78
2022-11-21T08:03:12.871Z,11.75
2022-11-21T08:05:42.596Z,8.77
2022-11-21T08:08:10.890Z,9.23
2022-11-21T08:10:45.707Z,7.82
2022-11-21T08:13:13.191Z,6.95
2022-11-21T08:15:40.595Z,10.32
2022-11-21T08:18:15.984Z,8.95
2022-11-21T08:20:43.040Z,7.72
2022-11-21T08:23:11.119Z,8.43
2022-11-21T08:25:39.339Z,6.15
2022-11-21T08:28:07.444Z,8.20
2022-11-21T08:30:35.111Z,9.95
2022-11-21T08:33:02.029Z,8.13
2022-11-21T08:35:29.540Z,7.82
2022-11-21T08:37:57.586Z,6.97
2022-11-21T08:40:28.976Z,7.32
2022-11-21T08:43:00.741Z,8.95
2022-11-21T08:45:27.601Z,8.20
2022-11-21T08:47:54.702Z,7.43
2022-11-21T08:50:22.898Z,8.32
2022-11-21T08:52:50.066Z,8.77
2022-11-21T08:55:17.055Z,9.32
2022-11-21T08:57:43.974Z,8.63
2022-11-21T09:00:15.081Z,9.25
2022-11-21T09:02:42.176Z,10.10
2022-11-21T09:05:09.632Z,10.25
2022-11-21T09:07:36.648Z,7.88
2022-11-21T09:10:04.045Z,10.77
2022-11-21T09:12:31.069Z,8.55
2022-11-21T09:15:16.475Z,8.45
2022-11-21T09:18:01.416Z,10.15
2022-11-21T09:20:28.127Z,10.05
2022-11-21T09:22:54.803Z,8.93
2022-11-21T09:25:21.542Z,9.23
2022-11-21T09:27:48.184Z,7.97
2022-11-21T09:30:15.798Z,12.65
2022-11-21T09:32:42.343Z,10.13
2022-11-21T09:35:09.641Z,7.80
2022-11-21T09:37:39.382Z,8.43
2022-11-21T09:40:06.714Z,8.68
2022-11-21T09:42:56.955Z,7.85
2022-11-21T09:45:28.155Z,11.00
2022-11-21T09:47:56.070Z,11.45
2022-11-21T09:50:34.930Z,15.00
2022-11-21T09:53:12.779Z,38.00
2022-11-21T09:55:57.939Z,8.77
2022-11-21T09:58:30.538Z,9.30
2022-11-21T10:00:58.548Z,8.93
2022-11-21T10:03:29.819Z,7.47
2022-11-21T10:06:16.056Z,7.35
2022-11-21T10:08:43.020Z,8.48
2022-11-21T10:11:23.704Z,9.38
2022-11-21T10:14:11.583Z,9.35
2022-11-21T10:16:52.896Z,8.43
2022-11-21T10:19:37.572Z,9.80
2022-11-21T10:22:10.061Z,7.97
2022-11-21T10:24:40.926Z,6.82
2022-11-21T10:27:37.604Z,9.15
2022-11-21T10:30:15.161Z,8.60
2022-11-21T10:32:46.502Z,9.63
2022-11-21T10:35:19.175Z,8.50
2022-11-21T10:37:51.990Z,7.93
2022-11-21T10:40:29.970Z,8.88
2022-11-21T10:43:33.668Z,7.60
2022-11-21T10:46:00.329Z,8.25
2022-11-21T10:48:26.938Z,11.45
2022-11-21T10:51:14.288Z,10.52
2022-11-21T10:54:04.565Z,8.48
2022-11-21T10:56:35.758Z,10.57
2022-11-21T10:59:28.643Z,8.60
2022-11-21T11:02:22.838Z,9.63
2022-11-21T11:04:52.424Z,13.77
2022-11-21T11:07:28.943Z,14.82
2022-11-21T11:10:26.950Z,10.13
2022-11-21T11:13:38.793Z,9.68
2022-11-21T11:16:16.259Z,10.45
2022-11-21T11:18:52.188Z,10.85
2022-11-21T11:21:24.914Z,8.75
2022-11-21T11:23:54.070Z,8.65
2022-11-21T11:26:25.276Z,8.68
2022-11-21T11:28:52.368Z,8.45
2022-11-21T11:31:19.177Z,7.72
2022-11-21T11:33:48.692Z,8.68
2022-11-21T11:36:15.387Z,8.70
2022-11-21T11:38:48.573Z,7.57
2022-11-21T11:45:24.615Z,7.95
2022-11-21T11:47:56.833Z,7.57
2022-11-21T11:50:29.486Z,7.95
2022-11-21T11:53:20.260Z,8.35
2022-11-21T11:56:16.757Z,11.55
2022-11-21T11:58:54.204Z,13.65
2022-11-21T12:01:33.098Z,17.63
2022-11-21T12:04:07.064Z,11.23
2022-11-21T12:07:41.128Z,11.00
2022-11-21T12:09:35.050Z,13.75
2022-11-21T12:12:17.091Z,13.25
2022-11-21T12:15:07.094Z,14.27
2022-11-21T12:17:57.644Z,12.48
2022-11-21T12:20:30.084Z,11.93
2022-11-21T12:22:57.381Z,18.77
2022-11-21T12:25:30.599Z,12.98
2022-11-21T12:30:50.020Z,19.35
2022-11-21T12:33:23.930Z,21.58
2022-11-21T12:36:18.717Z,35.58
2022-11-21T12:38:54.883Z,36.03
2022-11-21T12:41:43.145Z,29.80
2022-11-21T12:44:19.154Z,33.17
2022-11-21T12:47:11.154Z,32.45
2022-11-21T12:50:38.377Z,25.55
2022-11-21T12:53:41.655Z,21.05
2022-11-21T12:56:19.482Z,20.23
2022-11-21T12:58:51.750Z,25.58
2022-11-21T13:01:48.381Z,19.67
2022-11-21T13:04:23.612Z,20.38
2022-11-21T13:06:51.585Z,12.73
2022-11-21T13:09:22.626Z,17.80
2022-11-21T13:12:01.518Z,13.80
2022-11-21T13:14:36.611Z,13.43
2022-11-21T13:17:21.834Z,15.25
2022-11-21T13:20:05.194Z,24.85
2022-11-21T13:22:37.789Z,20.90
2022-11-21T13:25:09.592Z,14.98
2022-11-21T13:27:39.328Z,14.70
2022-11-21T13:30:09.100Z,15.02
2022-11-21T13:32:38.787Z,14.02
2022-11-21T13:35:14.939Z,13.88
2022-11-21T13:38:01.924Z,14.32
2022-11-21T13:40:28.603Z,15.43
2022-11-21T13:43:32.738Z,17.50
2022-11-21T13:45:59.430Z,20.38
2022-11-21T13:48:30.679Z,22.55
2022-11-21T13:51:11.134Z,22.83
2022-11-21T13:53:58.103Z,15.88
2022-11-21T13:56:53.762Z,18.52
2022-11-21T13:59:42.216Z,16.05
2022-11-21T14:02:27.587Z,19.40
2022-11-21T14:05:20.244Z,18.05
2022-11-21T14:07:47.960Z,16.67
2022-11-21T14:10:34.177Z,17.83
2022-11-21T14:13:03.435Z,38.72
2022-11-21T14:15:47.042Z,120.38
2022-11-21T14:18:25.370Z,74.22
2022-11-21T14:20:58.586Z,48.00
2022-11-21T14:26:05.156Z,29.77
2022-11-21T14:28:34.963Z,24.52
2022-11-21T14:31:06.659Z,18.33
2022-11-21T14:33:35.583Z,20.23
2022-11-21T14:36:12.757Z,18.15
2022-11-21T14:42:03.061Z,18.73
2022-11-21T14:44:30.235Z,16.30
2022-11-21T14:50:26.197Z,18.60
2022-11-21T14:58:22.487Z,12.43
2022-11-21T15:01:22.181Z,11.60
2022-11-21T15:04:26.243Z,13.30
2022-11-21T15:06:53.342Z,15.27
2022-11-21T15:12:09.863Z,13.32
2022-11-21T15:14:42.992Z,12.25
2022-11-21T15:17:16.467Z,14.60
2022-11-21T15:19:44.326Z,13.15
2022-11-21T15:22:26.221Z,13.75
2022-11-21T15:25:07.438Z,12.15
2022-11-21T15:27:35.285Z,12.23
2022-11-21T15:30:09.888Z,12.48
2022-11-21T15:33:04.403Z,13.40
2022-11-21T15:35:52.533Z,14.05
2022-11-21T15:38:24.485Z,16.50
2022-11-21T15:41:01.675Z,12.73
2022-11-21T15:43:35.614Z,29.92
2022-11-21T15:46:03.412Z,19.85
2022-11-21T15:48:30.594Z,16.73
2022-11-21T15:50:58.890Z,21.20
2022-11-21T15:53:25.836Z,15.20
2022-11-21T15:55:52.496Z,18.35
2022-11-21T15:58:19.601Z,14.40
2022-11-21T16:03:54.258Z,15.68
2022-11-21T16:06:21.147Z,16.30
2022-11-21T16:08:59.084Z,16.40
2022-11-21T16:11:28.534Z,14.57
2022-11-21T16:14:00.536Z,15.90
2022-11-21T16:16:30.288Z,18.40
2022-11-21T16:18:57.475Z,15.13
2022-11-21T16:21:24.607Z,15.63
2022-11-21T16:23:52.267Z,21.75
2022-11-21T16:26:19.335Z,17.60
2022-11-21T16:28:47.081Z,19.63
2022-11-21T16:31:25.009Z,20.83
2022-11-21T16:33:51.866Z,18.02
2022-11-21T16:36:23.696Z,17.48
2022-11-21T16:38:50.978Z,14.82
2022-11-21T16:41:22.170Z,17.80
2022-11-21T16:43:51.415Z,14.57
2022-11-21T16:46:20.246Z,13.60
2022-11-21T16:48:47.304Z,15.18
2022-11-21T16:51:20.269Z,14.60
2022-11-21T16:53:49.151Z,16.65
2022-11-21T16:56:16.989Z,14.98
2022-11-21T16:58:43.996Z,22.90
2022-11-21T17:01:16.144Z,19.50
2022-11-21T17:03:45.310Z,17.98
2022-11-21T17:06:13.827Z,16.80
2022-11-21T17:08:40.623Z,28.77
2022-11-21T17:11:29.326Z,18.35
2022-11-21T17:14:04.343Z,18.83
2022-11-21T17:16:32.082Z,18.17
2022-11-21T17:19:01.106Z,16.67
2022-11-21T17:21:28.909Z,18.38
2022-11-21T17:23:55.710Z,20.80
2022-11-21T17:26:25.075Z,21.65
2022-11-21T17:28:55.953Z,26.27
2022-11-21T17:31:23.006Z,19.13
2022-11-21T17:33:54.750Z,24.27
2022-11-21T17:36:27.057Z,28.83
2022-11-21T17:38:54.592Z,18.67
2022-11-21T17:41:23.143Z,21.17
2022-11-21T17:43:54.574Z,20.27
2022-11-21T17:46:21.257Z,17.15
2022-11-21T17:48:55.042Z,14.13
2022-11-21T17:51:25.645Z,15.02
2022-11-21T17:53:52.973Z,11.25
2022-11-21T17:56:22.500Z,12.00
2022-11-21T17:58:50.262Z,13.13
2022-11-21T18:01:20.542Z,9.35
2022-11-21T18:03:59.081Z,10.77
2022-11-21T18:06:28.477Z,12.23
2022-11-21T18:08:58.607Z,10.85
2022-11-21T18:11:32.046Z,10.15
2022-11-21T18:14:03.240Z,17.13
2022-11-21T18:16:31.657Z,25.85
2022-11-21T18:18:59.209Z,14.02
2022-11-21T18:21:31.304Z,12.98
2022-11-21T18:23:59.638Z,14.23
2022-11-21T18:26:29.423Z,14.95
2022-11-21T18:29:28.793Z,25.02
2022-11-21T18:31:48.151Z,16.98
2022-11-21T18:34:14.878Z,14.90
2022-11-21T18:36:41.606Z,15.50
2022-11-21T18:39:14.300Z,18.73
2022-11-21T18:41:42.086Z,16.25
2022-11-21T18:44:08.889Z,17.52
2022-11-21T18:46:37.197Z,13.25
2022-11-21T18:49:07.454Z,22.52
2022-11-21T18:51:35.807Z,33.33
2022-11-21T18:54:07.120Z,21.88
2022-11-21T18:56:34.857Z,19.85
2022-11-21T18:59:03.765Z,11.85
2022-11-21T19:01:32.008Z,11.88
2022-11-21T19:03:59.227Z,11.85
2022-11-21T19:06:27.019Z,11.95
2022-11-21T19:08:55.722Z,15.43
2022-11-21T19:11:24.681Z,13.13
2022-11-21T19:13:53.032Z,20.15
2022-11-21T19:16:21.740Z,12.88
2022-11-21T19:19:11.555Z,13.15
2022-11-21T19:21:38.146Z,14.02
2022-11-21T19:24:06.951Z,13.60
2022-11-21T19:26:33.941Z,13.18
2022-11-21T19:31:45.644Z,13.32
2022-11-21T19:34:18.801Z,10.15
2022-11-21T19:36:45.467Z,9.73
2022-11-21T19:39:12.747Z,8.25
2022-11-21T19:41:39.445Z,9.45
2022-11-21T19:44:06.243Z,7.47
2022-11-21T19:46:35.570Z,10.45
2022-11-21T19:49:02.603Z,10.68
2022-11-21T19:51:35.709Z,11.77
2022-11-21T19:54:03.979Z,8.90
2022-11-21T19:56:30.743Z,7.32
2022-11-21T19:58:58.599Z,11.88
2022-11-21T20:01:27.801Z,14.02
2022-11-21T20:03:57.173Z,8.88
2022-11-21T20:06:26.712Z,11.57
2022-11-21T20:08:56.836Z,20.98
2022-11-21T20:11:25.182Z,20.80
2022-11-21T20:13:52.582Z,14.55
2022-11-21T20:16:27.766Z,15.35
2022-11-21T20:18:57.774Z,17.20
2022-11-21T20:21:25.022Z,30.30
2022-11-21T20:23:52.165Z,20.95
2022-11-21T20:26:21.161Z,20.20
2022-11-21T20:28:48.879Z,17.17
2022-11-21T20:31:17.135Z,14.35
2022-11-21T20:33:46.472Z,14.88
2022-11-21T20:36:17.700Z,13.73
2022-11-21T20:38:49.750Z,11.77
2022-11-21T20:41:16.449Z,14.85
2022-11-21T20:44:27.348Z,10.13
2022-11-21T20:46:30.022Z,18.17
2022-11-21T20:48:57.673Z,14.85
2022-11-21T20:54:11.922Z,10.45
2022-11-21T20:56:41.330Z,8.57
2022-11-21T20:59:10.912Z,9.25
2022-11-21T21:01:37.707Z,7.80
2022-11-21T21:04:04.593Z,13.60
2022-11-21T21:06:31.398Z,8.93
2022-11-21T21:08:58.449Z,11.30
2022-11-21T21:14:12.175Z,17.90
2022-11-21T21:16:38.881Z,13.27
2022-11-21T21:19:05.531Z,12.02
2022-11-21T21:21:32.353Z,9.65
2022-11-21T21:24:00.376Z,12.13
2022-11-21T21:26:30.237Z,5.32
2022-11-21T21:28:59.809Z,5.18
2022-11-21T21:31:28.123Z,6.82
2022-11-21T21:33:55.197Z,9.02
2022-11-21T21:36:24.459Z,8.10
2022-11-21T21:38:58.983Z,9.40
2022-11-21T21:41:27.404Z,12.23
2022-11-21T21:43:55.518Z,8.98
2022-11-21T21:46:24.205Z,14.55
2022-11-21T21:48:55.854Z,9.93
2022-11-21T21:51:27.807Z,11.48
2022-11-21T21:53:56.268Z,17.13
2022-11-21T21:56:25.029Z,7.55
2022-11-21T21:58:52.258Z,11.70
2022-11-21T22:01:20.002Z,10.20
2022-11-21T22:03:47.711Z,12.85
2022-11-21T22:06:17.060Z,17.55
2022-11-21T22:08:45.607Z,11.27
2022-11-21T22:11:17.832Z,10.48
2022-11-21T22:13:46.850Z,14.15
2022-11-21T22:16:14.603Z,14.43
2022-11-21T22:18:41.408Z,15.27
2022-11-21T22:21:15.028Z,7.47
2022-11-21T22:24:02.484Z,6.05
2022-11-21T22:26:28.991Z,8.70
2022-11-21T22:28:56.196Z,7.22
2022-11-21T22:31:22.844Z,12.27
2022-11-21T22:33:49.647Z,12.32
2022-11-21T22:36:18.615Z,13.32
2022-11-21T22:38:45.627Z,14.23
2022-11-21T22:41:12.188Z,16.65
2022-11-21T22:43:39.932Z,10.63
2022-11-21T22:46:07.370Z,13.07
2022-11-21T22:48:35.227Z,9.68
2022-11-21T22:51:02.253Z,10.57
2022-11-21T22:53:28.962Z,9.82
2022-11-21T22:56:05.333Z,15.52
2022-11-21T22:58:38.295Z,7.78
2022-11-21T23:01:12.998Z,12.55
2022-11-21T23:03:40.771Z,14.77
2022-11-21T23:06:29.749Z,11.23
2022-11-21T23:08:57.289Z,9.05
2022-11-21T23:11:29.291Z,13.70
2022-11-21T23:13:56.714Z,8.27
2022-11-21T23:16:23.844Z,14.48
2022-11-21T23:18:53.653Z,9.02
2022-11-21T23:21:21.443Z,10.27
2022-11-21T23:23:48.421Z,9.40
2022-11-21T23:26:15.182Z,9.75
2022-11-21T23:28:41.870Z,13.05
2022-11-21T23:31:10.338Z,8.52
2022-11-21T23:33:37.197Z,15.65
2022-11-21T23:36:04.691Z,7.22
2022-11-21T23:38:31.462Z,13.35
2022-11-21T23:40:58.167Z,7.18
2022-11-21T23:43:24.862Z,6.63
2022-11-21T23:45:52.603Z,13.63
2022-11-21T23:48:20.033Z,7.38
2022-11-21T23:50:47.864Z,12.35
2022-11-21T23:53:14.586Z,9.15
2022-11-21T23:55:42.522Z,7.57
2022-11-21T23:58:09.278Z,8.90
